createdAt,value
2023-03-01T00:00:04.638Z,-1.20
2023-03-01T00:02:31.423Z,-1.20
2023-03-01T00:04:58.225Z,-1.20
2023-03-01T00:07:25.020Z,-1.20
2023-03-01T00:09:51.791Z,-1.20
2023-03-01T00:12:18.549Z,-1.20
2023-03-01T00:14:45.307Z,-1.30
2023-03-01T00:17:12.400Z,-1.30
2023-03-01T00:19:39.121Z,-1.30
2023-03-01T00:22:06.028Z,-1.30
2023-03-01T00:24:32.898Z,-1.30
2023-03-01T00:26:59.890Z,-1.30
2023-03-01T00:29:26.739Z,-1.30
2023-03-01T00:31:53.631Z,-1.40
2023-03-01T00:34:20.544Z,-1.40
2023-03-01T00:36:47.619Z,-1.40
2023-03-01T00:39:16.068Z,-1.40
2023-03-01T00:41:43.449Z,-1.40
2023-03-01T00:44:10.604Z,-1.40
2023-03-01T00:46:37.696Z,-1.40
2023-03-01T00:49:05.581Z,-1.50
2023-03-01T00:51:33.289Z,-1.50
2023-03-01T00:54:02.465Z,-1.50
2023-03-01T00:56:30.909Z,-1.50
2023-03-01T00:58:58.069Z,-1.60
2023-03-01T01:01:28.567Z,-1.60
2023-03-01T01:04:04.759Z,-1.50
2023-03-01T01:06:33.205Z,-1.50
2023-03-01T01:09:00.504Z,-1.60
2023-03-01T01:11:28.664Z,-1.60
2023-03-01T01:13:55.937Z,-1.60
2023-03-01T01:16:24.142Z,-1.60
2023-03-01T01:18:51.427Z,-1.60
2023-03-01T01:21:20.696Z,-1.60
2023-03-01T01:23:48.008Z,-1.50
2023-03-01T01:26:17.909Z,-1.40
2023-03-01T01:28:44.766Z,-1.30
2023-03-01T01:31:11.756Z,-1.20
2023-03-01T01:33:39.038Z,-1.10
2023-03-01T01:36:07.547Z,-1.10
2023-03-01T01:38:35.616Z,-1.10
2023-03-01T01:41:02.491Z,-1.00
2023-03-01T01:43:31.876Z,-1.00
2023-03-01T01:46:21.901Z,-0.90
2023-03-01T01:48:56.150Z,-0.90
2023-03-01T01:51:26.598Z,-0.90
